createdAt,value
2017-06-17T00:02:09.919Z,48.20
2017-06-17T00:04:37.414Z,48.30
2017-06-17T00:07:05.718Z,49.00
2017-06-17T00:09:33.262Z,49.00
2017-06-17T00:12:00.767Z,49.10
2017-06-17T00:14:28.302Z,49.10
2017-06-17T00:16:55.848Z,49.10
2017-06-17T00:19:23.380Z,49.50
2017-06-17T00:21:51.676Z,49.90
2017-06-17T00:24:19.239Z,49.90
2017-06-17T00:26:46.794Z,50.10
2017-06-17T00:29:14.363Z,50.30
2017-06-17T00:31:41.914Z,50.80
2017-06-17T00:34:09.575Z,51.00
2017-06-17T00:36:37.135Z,51.40
2017-06-17T00:39:04.698Z,51.40
2017-06-17T00:41:32.464Z,51.30
2017-06-17T00:44:00.037Z,51.60
2017-06-17T00:46:27.587Z,51.90
2017-06-17T00:48:55.148Z,52.20
2017-06-17T00:51:22.703Z,52.30
2017-06-17T00:53:50.263Z,52.50
2017-06-17T00:56:17.759Z,52.70
2017-06-17T00:58:45.302Z,53.00
2017-06-17T01:01:12.798Z,53.40
2017-06-17T01:03:40.294Z,53.80
2017-06-17T01:06:07.832Z,53.80
2017-06-17T01:08:35.323Z,54.30
2017-06-17T01:11:02.823Z,54.60
2017-06-17T01:13:30.450Z,55.00
2017-06-17T01:15:57.942Z,55.00
2017-06-17T01:18:25.434Z,55.10
2017-06-17T01:20:53.803Z,55.90
2017-06-17T01:23:22.063Z,55.70
2017-06-17T01:25:49.564Z,55.70
2017-06-17T01:28:17.099Z,55.70
2017-06-17T01:30:44.646Z,55.80
2017-06-17T01:33:12.143Z,55.70
2017-06-17T01:35:39.643Z,55.60
2017-06-17T01:38:07.168Z,55.80
2017-06-17T01:40:34.667Z,55.70
2017-06-17T01:43:02.162Z,55.80
2017-06-17T01:45:29.689Z,55.60
2017-06-17T01:47:57.178Z,55.50
2017-06-17T01:50:25.442Z,55.40
2017-06-17T01:52:53.743Z,55.50
2017-06-17T01:55:21.236Z,55.30
2017-06-17T01:57:48.726Z,55.40
2017-06-17T02:00:16.249Z,55.10
2017-06-17T02:02:43.750Z,54.90
2017-06-17T02:05:11.246Z,55.00
2017-06-17T02:07:38.785Z,54.90
2017-06-17T02:10:07.043Z,54.40
2017-06-17T02:12:34.536Z,54.40
2017-06-17T02:15:02.062Z,54.30
2017-06-17T02:17:29.555Z,54.10
2017-06-17T02:19:57.050Z,53.90
2017-06-17T02:22:24.769Z,53.90
2017-06-17T02:24:52.262Z,54.10
2017-06-17T02:27:19.758Z,54.00
2017-06-17T02:29:47.272Z,53.90
2017-06-17T02:32:14.767Z,53.70
2017-06-17T02:34:42.298Z,53.50
2017-06-17T02:37:09.794Z,53.60
2017-06-17T02:39:38.058Z,53.40
2017-06-17T02:42:05.586Z,53.40
2017-06-17T02:44:33.090Z,53.30
2017-06-17T02:47:01.355Z,53.00
2017-06-17T02:49:28.923Z,53.50
2017-06-17T02:51:56.423Z,53.60
2017-06-17T02:54:24.047Z,53.80
2017-06-17T02:56:52.310Z,54.20
2017-06-17T02:59:19.811Z,53.70
2017-06-17T03:01:47.430Z,53.60
2017-06-17T03:04:14.930Z,53.40
2017-06-17T03:06:42.422Z,53.30
2017-06-17T03:09:09.960Z,53.30
2017-06-17T03:11:37.467Z,53.40
2017-06-17T03:14:04.967Z,53.30
2017-06-17T03:16:32.503Z,53.20
2017-06-17T03:19:00.766Z,53.20
2017-06-17T03:21:28.263Z,53.10
2017-06-17T03:23:55.783Z,53.30
2017-06-17T03:26:23.279Z,53.10
2017-06-17T03:28:50.819Z,53.00
2017-06-17T03:31:19.095Z,53.00
2017-06-17T03:33:47.364Z,52.80
2017-06-17T03:36:15.672Z,52.60
2017-06-17T03:38:43.171Z,52.60
2017-06-17T03:41:10.667Z,52.70
2017-06-17T03:43:38.958Z,52.30
2017-06-17T03:46:06.457Z,52.30
2017-06-17T03:48:33.978Z,52.30
2017-06-17T03:51:01.512Z,52.30
2017-06-17T03:53:29.776Z,52.40
2017-06-17T03:55:57.274Z,52.30
2017-06-17T03:58:24.807Z,52.20
2017-06-17T04:00:53.071Z,52.40
2017-06-17T04:03:20.568Z,52.40
2017-06-17T04:05:48.435Z,52.30
2017-06-17T04:08:15.944Z,52.30
2017-06-17T04:10:43.443Z,52.20
2017-06-17T04:13:11.105Z,52.00
2017-06-17T04:15:39.362Z,51.40
2017-06-17T04:18:07.631Z,51.20
2017-06-17T04:20:36.023Z,51.10
2017-06-17T04:23:04.291Z,50.50
2017-06-17T04:25:32.556Z,50.40
2017-06-17T04:28:00.094Z,50.20
2017-06-17T04:30:27.598Z,50.20
2017-06-17T04:32:55.859Z,50.20
2017-06-17T04:35:23.391Z,50.10
2017-06-17T04:37:50.887Z,50.10
2017-06-17T04:40:19.178Z,50.10
2017-06-17T04:42:46.674Z,50.10
2017-06-17T04:45:14.199Z,49.90
2017-06-17T04:47:41.872Z,49.80
2017-06-17T04:50:09.375Z,49.40
2017-06-17T04:52:36.879Z,49.30
2017-06-17T04:55:04.511Z,49.30
2017-06-17T04:57:32.784Z,49.60
2017-06-17T05:00:00.381Z,49.20
2017-06-17T05:02:27.949Z,49.20
2017-06-17T05:04:55.527Z,49.20
2017-06-17T05:07:23.027Z,49.20
2017-06-17T05:09:50.629Z,48.60
2017-06-17T05:12:18.139Z,48.60
2017-06-17T05:14:45.752Z,48.50
2017-06-17T05:17:13.278Z,48.60
2017-06-17T05:19:41.584Z,48.40
2017-06-17T05:22:09.146Z,48.40
2017-06-17T05:24:36.698Z,48.40
2017-06-17T05:27:04.265Z,48.40
2017-06-17T05:29:31.790Z,48.10
2017-06-17T05:32:00.203Z,48.50
2017-06-17T05:34:27.758Z,48.40
2017-06-17T05:36:55.266Z,48.40
2017-06-17T05:39:22.795Z,48.20
2017-06-17T05:41:50.319Z,48.10
2017-06-17T05:44:17.900Z,48.30
2017-06-17T05:46:45.455Z,48.10
2017-06-17T05:49:13.015Z,47.90
2017-06-17T05:51:40.523Z,47.90
2017-06-17T05:54:08.140Z,48.00
2017-06-17T05:56:35.652Z,47.90
2017-06-17T05:59:03.263Z,48.30
2017-06-17T06:01:30.795Z,48.20
2017-06-17T06:03:59.094Z,48.20
2017-06-17T06:06:26.618Z,48.10
2017-06-17T06:08:54.940Z,48.10
2017-06-17T06:11:22.454Z,48.00
2017-06-17T06:13:50.222Z,48.30
2017-06-17T06:16:17.793Z,48.30
2017-06-17T06:18:45.290Z,48.50
2017-06-17T06:21:12.819Z,49.50
2017-06-17T06:23:41.094Z,48.40
2017-06-17T06:26:09.389Z,48.40
2017-06-17T06:28:36.963Z,48.30
2017-06-17T06:31:04.472Z,48.60
2017-06-17T06:33:32.186Z,48.70
2017-06-17T06:35:59.842Z,49.30
2017-06-17T06:38:27.580Z,49.40
2017-06-17T06:40:55.378Z,49.10
2017-06-17T06:43:22.878Z,49.00
2017-06-17T06:45:50.387Z,49.40
2017-06-17T06:48:17.926Z,50.10
2017-06-17T06:50:45.471Z,50.20
2017-06-17T06:53:12.976Z,50.50
2017-06-17T06:55:41.392Z,50.60
2017-06-17T06:58:08.910Z,50.40
2017-06-17T07:00:36.842Z,49.70
2017-06-17T07:03:04.396Z,49.70
2017-06-17T07:05:31.906Z,49.30
2017-06-17T07:08:00.186Z,49.50
2017-06-17T07:10:28.600Z,50.10
2017-06-17T07:12:56.163Z,50.00
2017-06-17T07:15:23.680Z,50.10
2017-06-17T07:17:52.103Z,50.00
2017-06-17T07:20:19.671Z,50.00
2017-06-17T07:22:47.235Z,49.80
2017-06-17T07:25:14.775Z,48.50
2017-06-17T07:27:42.344Z,48.40
2017-06-17T07:30:09.899Z,47.70
2017-06-17T07:32:37.463Z,46.40
2017-06-17T07:35:04.967Z,46.20
2017-06-17T07:37:32.575Z,45.60
2017-06-17T07:40:00.146Z,44.80
2017-06-17T07:42:27.759Z,44.50
2017-06-17T07:44:55.358Z,44.20
2017-06-17T07:47:23.026Z,43.40
2017-06-17T07:49:50.579Z,42.80
2017-06-17T07:52:18.080Z,43.00
2017-06-17T07:54:45.706Z,41.60
2017-06-17T07:57:13.266Z,41.20
2017-06-17T07:59:41.027Z,40.80
2017-06-17T08:02:08.517Z,39.90
2017-06-17T08:04:36.024Z,40.10
2017-06-17T08:07:04.633Z,40.20
2017-06-17T08:09:32.139Z,40.40
2017-06-17T08:11:59.642Z,40.80
2017-06-17T08:14:27.167Z,40.90
2017-06-17T08:16:54.661Z,41.30
2017-06-17T08:19:22.192Z,41.50
2017-06-17T08:21:49.695Z,41.20
2017-06-17T08:24:17.243Z,41.10
2017-06-17T08:26:44.739Z,41.60
2017-06-17T08:29:12.467Z,41.60
2017-06-17T08:31:40.026Z,42.40
2017-06-17T08:34:07.682Z,42.60
2017-06-17T08:36:35.206Z,42.40
2017-06-17T08:39:02.707Z,42.50
2017-06-17T08:41:30.364Z,42.60
2017-06-17T08:43:57.889Z,42.20
2017-06-17T08:46:26.158Z,41.80
2017-06-17T08:48:54.667Z,42.80
2017-06-17T08:51:22.956Z,41.90
2017-06-17T08:53:50.483Z,41.80
2017-06-17T08:56:18.179Z,41.50
2017-06-17T08:58:45.712Z,41.30
2017-06-17T09:01:14.022Z,41.30
2017-06-17T09:03:41.522Z,41.00
2017-06-17T09:06:09.034Z,40.80
2017-06-17T09:08:36.599Z,40.80
2017-06-17T09:11:04.107Z,40.80
2017-06-17T09:13:31.714Z,40.50
2017-06-17T09:15:59.275Z,39.80
2017-06-17T09:18:26.774Z,38.90
2017-06-17T09:20:54.500Z,39.00
2017-06-17T09:23:22.063Z,38.90
2017-06-17T09:25:49.570Z,39.30
2017-06-17T09:28:17.106Z,39.20
2017-06-17T09:30:44.735Z,37.90
2017-06-17T09:33:12.295Z,37.40
2017-06-17T09:35:39.818Z,38.10
2017-06-17T09:38:07.494Z,38.50
2017-06-17T09:40:35.810Z,38.80
2017-06-17T09:43:03.335Z,38.80
2017-06-17T09:45:32.674Z,37.60
2017-06-17T09:48:00.217Z,37.50
2017-06-17T09:50:27.743Z,37.70
2017-06-17T09:52:55.761Z,36.60
2017-06-17T09:55:23.299Z,36.40
2017-06-17T09:57:50.851Z,36.60
2017-06-17T10:00:18.431Z,36.80
2017-06-17T10:02:45.999Z,36.60
2017-06-17T10:05:13.556Z,36.70
2017-06-17T10:07:41.063Z,36.40
2017-06-17T10:10:08.625Z,36.00
2017-06-17T10:12:36.244Z,36.30
2017-06-17T10:15:03.756Z,36.60
2017-06-17T10:17:32.176Z,35.80
2017-06-17T10:19:59.731Z,36.40
2017-06-17T10:22:27.234Z,36.50
2017-06-17T10:24:54.797Z,35.70
2017-06-17T10:27:22.302Z,36.00
2017-06-17T10:29:49.967Z,35.90
2017-06-17T10:32:17.511Z,36.30
2017-06-17T10:34:45.023Z,36.70
2017-06-17T10:37:12.558Z,37.20
2017-06-17T10:39:40.203Z,37.30
2017-06-17T10:42:07.772Z,37.50
2017-06-17T10:44:35.294Z,37.40
2017-06-17T10:47:03.603Z,37.40
2017-06-17T10:49:31.100Z,37.40
2017-06-17T10:51:58.626Z,37.40
2017-06-17T10:54:26.164Z,37.30
2017-06-17T10:56:53.742Z,37.30
2017-06-17T10:59:21.405Z,37.30
2017-06-17T11:01:48.923Z,37.30
2017-06-17T11:04:16.448Z,38.10
2017-06-17T11:06:44.143Z,38.50
2017-06-17T11:09:11.676Z,37.80
2017-06-17T11:11:39.179Z,38.40
2017-06-17T11:14:07.475Z,38.50
2017-06-17T11:16:34.979Z,38.50
2017-06-17T11:19:02.499Z,37.90
2017-06-17T11:21:30.060Z,38.30
2017-06-17T11:26:31.628Z,39.00
2017-06-17T11:28:59.155Z,39.50
2017-06-17T11:31:27.541Z,37.60
2017-06-17T11:33:55.131Z,37.60
2017-06-17T11:36:22.635Z,37.60
2017-06-17T11:38:50.355Z,37.70
2017-06-17T11:41:17.921Z,38.10
2017-06-17T11:43:45.473Z,38.90
2017-06-17T11:46:13.005Z,39.50
2017-06-17T11:48:40.507Z,39.30
2017-06-17T11:51:08.023Z,39.30
2017-06-17T11:53:35.611Z,39.30
2017-06-17T11:56:03.162Z,39.40
2017-06-17T11:58:30.704Z,39.60
2017-06-17T12:00:58.248Z,39.90
2017-06-17T12:03:29.579Z,40.50
2017-06-17T12:05:57.092Z,40.50
2017-06-17T12:08:24.589Z,40.30
2017-06-17T12:10:52.148Z,39.10
2017-06-17T12:13:19.675Z,39.30
2017-06-17T12:15:47.231Z,37.70
2017-06-17T12:18:14.835Z,38.70
2017-06-17T12:20:42.393Z,39.00
2017-06-17T12:23:09.916Z,38.90
2017-06-17T12:25:37.459Z,39.60
2017-06-17T12:28:04.991Z,39.60
2017-06-17T12:30:32.564Z,40.80
2017-06-17T12:33:00.215Z,40.60
2017-06-17T12:35:28.487Z,40.80
2017-06-17T12:37:56.023Z,40.20
2017-06-17T12:40:23.571Z,40.00
2017-06-17T12:42:51.375Z,40.00
2017-06-17T12:45:18.894Z,40.70
2017-06-17T12:47:46.552Z,41.10
2017-06-17T12:50:14.211Z,40.50
2017-06-17T12:52:41.760Z,40.30
2017-06-17T12:55:09.296Z,40.60
2017-06-17T12:57:37.595Z,40.70
2017-06-17T13:00:05.119Z,40.60
2017-06-17T13:02:33.434Z,41.00
2017-06-17T13:05:00.943Z,40.60
2017-06-17T13:07:28.444Z,40.50
2017-06-17T13:09:55.979Z,39.90
2017-06-17T13:12:24.247Z,39.20
2017-06-17T13:14:52.558Z,38.60
2017-06-17T13:17:20.123Z,38.20
2017-06-17T13:19:47.635Z,37.30
2017-06-17T13:22:15.174Z,35.90
2017-06-17T13:24:42.682Z,34.90
2017-06-17T13:27:10.255Z,34.80
2017-06-17T13:29:37.825Z,34.40
2017-06-17T13:32:05.378Z,32.50
2017-06-17T13:34:32.943Z,33.50
2017-06-17T13:37:00.446Z,32.00
2017-06-17T13:39:27.942Z,32.60
2017-06-17T13:41:55.471Z,31.80
2017-06-17T13:44:22.971Z,31.40
2017-06-17T13:46:50.526Z,31.90
2017-06-17T13:49:18.050Z,31.10
2017-06-17T13:51:45.551Z,31.00
2017-06-17T13:54:13.106Z,31.50
2017-06-17T13:56:41.541Z,30.50
2017-06-17T13:59:09.040Z,30.20
2017-06-17T14:01:36.759Z,31.40
2017-06-17T14:04:04.259Z,30.50
2017-06-17T14:06:31.828Z,29.90
2017-06-17T14:08:59.492Z,30.00
2017-06-17T14:11:26.998Z,29.90
2017-06-17T14:13:54.495Z,30.10
2017-06-17T14:16:22.048Z,30.70
2017-06-17T14:18:50.318Z,30.80
2017-06-17T14:21:24.291Z,32.10
2017-06-17T14:23:51.802Z,31.50
2017-06-17T14:26:19.315Z,32.00
2017-06-17T14:28:46.946Z,32.60
2017-06-17T14:31:14.447Z,32.70
2017-06-17T14:33:42.052Z,33.00
2017-06-17T14:36:09.594Z,33.10
2017-06-17T14:38:37.863Z,33.00
2017-06-17T14:41:06.168Z,34.10
2017-06-17T14:43:33.931Z,34.10
2017-06-17T14:46:01.591Z,34.30
2017-06-17T14:48:29.154Z,33.90
2017-06-17T14:50:56.723Z,33.50
2017-06-17T14:53:24.283Z,32.50
2017-06-17T14:55:51.783Z,32.30
2017-06-17T14:58:19.316Z,32.50
2017-06-17T15:00:47.188Z,33.50
2017-06-17T15:03:14.752Z,33.90
2017-06-17T15:05:42.302Z,34.70
2017-06-17T15:08:09.963Z,34.20
2017-06-17T15:10:37.466Z,34.70
2017-06-17T15:13:04.970Z,35.10
2017-06-17T15:15:32.512Z,35.00
2017-06-17T15:18:00.823Z,36.20
2017-06-17T15:20:28.343Z,36.30
2017-06-17T15:22:56.789Z,35.90
2017-06-17T15:25:24.293Z,35.90
2017-06-17T15:27:52.594Z,35.90
2017-06-17T15:30:20.354Z,35.80
2017-06-17T15:32:48.022Z,35.50
2017-06-17T15:35:15.696Z,34.60
2017-06-17T15:37:43.327Z,34.90
2017-06-17T15:40:11.739Z,35.50
2017-06-17T15:42:39.291Z,35.50
2017-06-17T15:45:06.915Z,35.60
2017-06-17T15:47:35.199Z,35.00
2017-06-17T15:50:03.488Z,34.90
2017-06-17T15:52:30.991Z,34.70
2017-06-17T15:54:58.526Z,35.60
2017-06-17T15:57:26.023Z,36.00
2017-06-17T15:59:53.586Z,36.30
2017-06-17T16:02:21.098Z,36.80
2017-06-17T16:04:48.638Z,37.20
2017-06-17T16:07:16.902Z,37.10
2017-06-17T16:09:45.175Z,37.80
2017-06-17T16:12:13.698Z,38.30
2017-06-17T16:14:41.200Z,38.20
2017-06-17T16:17:08.700Z,38.50
2017-06-17T16:19:36.232Z,38.80
2017-06-17T16:22:03.731Z,38.90
2017-06-17T16:24:31.284Z,39.20
2017-06-17T16:26:58.790Z,39.10
2017-06-17T16:29:26.290Z,39.10
2017-06-17T16:31:53.837Z,39.00
2017-06-17T16:34:22.114Z,39.10
2017-06-17T16:36:50.399Z,39.90
2017-06-17T16:39:17.927Z,39.70
2017-06-17T16:41:45.538Z,40.40
2017-06-17T16:44:13.058Z,40.30
2017-06-17T16:46:40.579Z,40.70
2017-06-17T16:49:08.323Z,41.20
2017-06-17T16:51:35.839Z,41.30
2017-06-17T16:54:03.338Z,41.90
2017-06-17T16:56:30.894Z,41.90
2017-06-17T16:58:58.454Z,42.20
2017-06-17T17:01:26.019Z,41.80
2017-06-17T17:03:53.539Z,42.20
2017-06-17T17:06:21.034Z,41.80
2017-06-17T17:08:48.603Z,41.50
2017-06-17T17:11:16.103Z,41.60
2017-06-17T17:13:43.674Z,41.60
2017-06-17T17:16:11.445Z,41.70
2017-06-17T17:18:39.010Z,41.80
2017-06-17T17:21:06.734Z,42.20
2017-06-17T17:23:34.339Z,42.50
2017-06-17T17:26:01.844Z,42.30
2017-06-17T17:28:29.450Z,42.30
2017-06-17T17:30:56.990Z,42.60
2017-06-17T17:33:25.256Z,42.50
2017-06-17T17:35:52.958Z,42.50
2017-06-17T17:38:20.521Z,42.60
2017-06-17T17:40:48.074Z,42.70
2017-06-17T17:43:15.637Z,43.00
2017-06-17T17:45:43.304Z,42.50
2017-06-17T17:48:10.863Z,41.90
2017-06-17T17:50:38.426Z,42.10
2017-06-17T17:53:05.951Z,41.90
2017-06-17T17:55:34.255Z,42.50
2017-06-17T17:58:01.750Z,42.40
2017-06-17T18:00:29.271Z,42.40
2017-06-17T18:02:56.791Z,42.40
2017-06-17T18:05:24.313Z,42.60
2017-06-17T18:07:51.950Z,43.20
2017-06-17T18:10:19.511Z,43.40
2017-06-17T18:12:47.071Z,43.30
2017-06-17T18:15:14.636Z,43.60
2017-06-17T18:17:42.159Z,43.40
2017-06-17T18:20:10.468Z,43.40
2017-06-17T18:22:38.006Z,43.40
2017-06-17T18:25:05.686Z,43.20
2017-06-17T18:27:33.259Z,43.50
2017-06-17T18:30:01.014Z,43.50
2017-06-17T18:32:28.515Z,43.70
2017-06-17T18:34:56.015Z,43.60
2017-06-17T18:37:24.415Z,43.70
2017-06-17T18:39:51.926Z,43.70
2017-06-17T18:42:19.423Z,43.90
2017-06-17T18:44:46.990Z,44.30
2017-06-17T18:47:14.530Z,44.40
2017-06-17T18:49:42.827Z,45.20
2017-06-17T18:52:10.390Z,45.20
2017-06-17T18:54:37.955Z,45.30
2017-06-17T18:57:05.465Z,45.70
2017-06-17T18:59:32.990Z,46.20
2017-06-17T19:02:00.627Z,46.10
2017-06-17T19:04:28.186Z,46.10
2017-06-17T19:06:55.690Z,46.10
2017-06-17T19:09:23.215Z,46.10
2017-06-17T19:11:50.715Z,46.10
2017-06-17T19:14:18.547Z,46.50
2017-06-17T19:16:46.064Z,46.60
2017-06-17T19:19:13.574Z,46.80
2017-06-17T19:21:41.312Z,46.90
2017-06-17T19:24:08.807Z,47.00
2017-06-17T19:26:36.438Z,47.30
2017-06-17T19:29:03.974Z,47.30
2017-06-17T19:31:32.271Z,47.40
2017-06-17T19:33:59.827Z,47.30
2017-06-17T19:36:27.490Z,47.50
2017-06-17T19:38:55.054Z,47.40
2017-06-17T19:41:22.614Z,47.80
2017-06-17T19:43:50.151Z,47.90
2017-06-17T19:46:18.443Z,48.30
2017-06-17T19:48:46.012Z,48.30
2017-06-17T19:51:13.550Z,48.70
2017-06-17T19:53:41.823Z,48.90
2017-06-17T19:56:10.107Z,48.90
2017-06-17T19:58:38.367Z,49.20
2017-06-17T20:01:06.882Z,49.20
2017-06-17T20:03:34.443Z,49.20
2017-06-17T20:06:02.002Z,49.10
2017-06-17T20:08:29.535Z,49.60
2017-06-17T20:10:57.842Z,49.80
2017-06-17T20:13:25.598Z,49.70
2017-06-17T20:15:53.095Z,49.70
2017-06-17T20:18:20.618Z,49.70
2017-06-17T20:20:48.130Z,49.70
2017-06-17T20:23:15.638Z,49.80
2017-06-17T20:25:43.183Z,49.60
2017-06-17T20:28:10.682Z,49.60
2017-06-17T20:30:38.943Z,49.80
2017-06-17T20:33:06.566Z,49.80
2017-06-17T20:35:34.960Z,50.00
2017-06-17T20:38:02.454Z,50.00
2017-06-17T20:40:29.991Z,50.20
2017-06-17T20:42:57.487Z,50.30
2017-06-17T20:45:25.010Z,50.50
2017-06-17T20:47:52.530Z,50.80
2017-06-17T20:50:20.936Z,51.20
2017-06-17T20:52:48.439Z,51.20
2017-06-17T20:55:15.951Z,51.40
2017-06-17T20:57:43.510Z,51.60
2017-06-17T21:00:11.011Z,51.50
2017-06-17T21:02:38.515Z,51.70
2017-06-17T21:05:06.912Z,52.10
2017-06-17T21:07:34.411Z,52.10
2017-06-17T21:10:01.928Z,52.30
2017-06-17T21:12:29.451Z,52.50
2017-06-17T21:14:57.151Z,52.60
2017-06-17T21:17:24.810Z,52.60
2017-06-17T21:19:52.310Z,52.60
2017-06-17T21:22:19.931Z,52.80
2017-06-17T21:24:47.431Z,52.70
2017-06-17T21:27:15.155Z,53.00
2017-06-17T21:29:42.723Z,53.10
2017-06-17T21:32:10.280Z,53.10
2017-06-17T21:34:38.742Z,53.30
2017-06-17T21:37:07.244Z,53.40
2017-06-17T21:39:34.742Z,54.10
2017-06-17T21:42:02.360Z,53.40
2017-06-17T21:44:30.023Z,53.50
2017-06-17T21:46:57.579Z,53.50
2017-06-17T21:49:25.144Z,53.80
2017-06-17T21:51:52.647Z,53.70
2017-06-17T21:54:20.168Z,53.70
2017-06-17T21:56:47.724Z,54.00
2017-06-17T21:59:15.282Z,54.30
2017-06-17T22:01:42.799Z,54.30
2017-06-17T22:04:10.394Z,54.40
2017-06-17T22:06:38.168Z,53.90
2017-06-17T22:09:05.727Z,54.10
2017-06-17T22:11:33.231Z,54.40
2017-06-17T22:14:00.768Z,54.10
2017-06-17T22:16:28.266Z,54.10
2017-06-17T22:18:55.805Z,53.80
2017-06-17T22:21:23.315Z,53.60
2017-06-17T22:23:50.811Z,53.60
2017-06-17T22:26:18.444Z,53.80
2017-06-17T22:28:45.947Z,53.70
2017-06-17T22:31:13.452Z,53.90
2017-06-17T22:33:40.984Z,54.10
2017-06-17T22:36:09.252Z,54.70
2017-06-17T22:38:36.785Z,53.90
2017-06-17T22:41:04.279Z,54.10
2017-06-17T22:43:32.544Z,54.20
2017-06-17T22:46:36.358Z,54.20
2017-06-17T22:49:03.906Z,53.90
2017-06-17T22:51:31.395Z,53.80
2017-06-17T22:53:58.891Z,54.30
2017-06-17T22:56:26.530Z,54.20
2017-06-17T22:58:54.099Z,54.30
2017-06-17T23:01:21.589Z,54.50
2017-06-17T23:03:49.127Z,54.70
2017-06-17T23:06:16.626Z,54.70
2017-06-17T23:08:44.126Z,54.90
2017-06-17T23:11:11.662Z,55.30
2017-06-17T23:13:39.927Z,55.40
2017-06-17T23:16:07.626Z,55.40
2017-06-17T23:18:35.387Z,55.40
2017-06-17T23:21:02.882Z,55.50
2017-06-17T23:23:30.382Z,55.80
2017-06-17T23:25:58.890Z,56.30
2017-06-17T23:28:26.391Z,56.30
2017-06-17T23:30:53.890Z,56.70
2017-06-17T23:33:22.186Z,57.00
2017-06-17T23:35:49.712Z,57.00
2017-06-17T23:38:17.301Z,57.00
2017-06-17T23:40:44.867Z,57.00
2017-06-17T23:43:12.426Z,57.00
2017-06-17T23:45:39.967Z,57.00
2017-06-17T23:48:08.222Z,57.00
2017-06-17T23:50:35.720Z,57.00
2017-06-17T23:53:03.273Z,57.00
2017-06-17T23:55:30.767Z,57.20
2017-06-17T23:57:58.298Z,57.60
